createdAt,value
2018-06-12T00:03:54.016Z,2.10
2018-06-12T00:08:57.628Z,1.53
2018-06-12T00:14:01.241Z,2.40
2018-06-12T00:19:05.098Z,2.70
2018-06-12T00:24:10.121Z,2.57
2018-06-12T00:29:13.816Z,3.17
2018-06-12T00:34:17.957Z,3.10
2018-06-12T00:39:21.693Z,2.67
2018-06-12T00:44:25.927Z,2.93
2018-06-12T00:49:31.447Z,2.40
2018-06-12T00:54:35.086Z,3.00
2018-06-12T00:59:38.737Z,2.83
2018-06-12T01:04:42.373Z,3.30
2018-06-12T01:09:46.085Z,3.70
2018-06-12T01:14:49.771Z,3.20
2018-06-12T01:19:54.364Z,3.80
2018-06-12T01:24:57.992Z,3.53
2018-06-12T01:30:01.739Z,2.87
2018-06-12T01:35:06.373Z,2.93
2018-06-12T01:40:10.468Z,3.30
2018-06-12T01:45:14.206Z,4.53
2018-06-12T01:50:18.097Z,3.40
2018-06-12T01:55:22.637Z,4.13
2018-06-12T02:00:26.298Z,3.60
2018-06-12T02:05:31.832Z,3.33
2018-06-12T02:10:43.368Z,3.53
2018-06-12T02:15:47.085Z,3.63
2018-06-12T02:20:51.009Z,3.33
2018-06-12T02:25:54.317Z,3.20
2018-06-12T02:31:09.007Z,3.10
2018-06-12T02:36:12.628Z,2.90
2018-06-12T02:41:16.252Z,3.67
2018-06-12T02:46:19.872Z,4.00
2018-06-12T02:51:23.765Z,3.97
2018-06-12T02:56:28.166Z,3.83
2018-06-12T03:01:31.941Z,3.33
2018-06-12T03:06:36.506Z,3.50
2018-06-12T03:11:40.817Z,4.10
2018-06-12T03:16:44.439Z,3.70
2018-06-12T03:21:48.375Z,4.47
2018-06-12T03:26:52.128Z,3.50
2018-06-12T03:31:55.743Z,3.17
2018-06-12T03:36:59.372Z,3.30
2018-06-12T03:42:03.149Z,2.80
2018-06-12T03:47:06.784Z,3.80
2018-06-12T03:52:10.397Z,3.50
2018-06-12T03:57:14.461Z,4.17
2018-06-12T04:02:19.957Z,3.40
2018-06-12T04:07:24.292Z,3.43
2018-06-12T04:12:27.921Z,3.60
2018-06-12T04:17:31.573Z,2.80
2018-06-12T04:22:35.203Z,3.23
2018-06-12T04:27:38.868Z,3.50
2018-06-12T04:32:42.471Z,2.80
2018-06-12T04:37:46.123Z,3.20
2018-06-12T04:42:49.736Z,3.83
2018-06-12T04:47:53.336Z,4.13
2018-06-12T04:52:57.324Z,4.33
2018-06-12T04:58:01.000Z,3.90
2018-06-12T05:03:05.175Z,3.70
2018-06-12T05:08:09.131Z,3.80
2018-06-12T05:13:14.573Z,3.80
2018-06-12T05:18:20.411Z,3.80
2018-06-12T05:23:24.106Z,4.13
2018-06-12T05:28:36.636Z,3.63
2018-06-12T05:33:40.255Z,3.93
2018-06-12T05:38:44.283Z,4.03
2018-06-12T05:43:47.937Z,3.83
2018-06-12T05:48:51.568Z,3.97
2018-06-12T05:53:55.221Z,4.20
2018-06-12T05:58:58.885Z,3.30
2018-06-12T06:04:02.649Z,3.57
2018-06-12T06:09:08.751Z,3.97
2018-06-12T06:14:12.423Z,3.30
2018-06-12T06:19:16.182Z,3.43
2018-06-12T06:24:20.423Z,3.43
2018-06-12T06:29:24.120Z,3.50
2018-06-12T06:34:27.789Z,3.60
2018-06-12T06:39:31.509Z,3.37
2018-06-12T06:44:34.806Z,3.23
2018-06-12T06:49:39.075Z,3.90
2018-06-12T06:54:43.625Z,3.80
2018-06-12T06:59:47.379Z,2.87
2018-06-12T07:04:51.056Z,2.20
2018-06-12T07:09:55.501Z,2.13
2018-06-12T07:14:59.171Z,2.20
2018-06-12T07:20:02.929Z,1.60
2018-06-12T07:25:07.277Z,1.63
2018-06-12T07:30:10.977Z,2.10
2018-06-12T07:35:15.318Z,1.60
2018-06-12T07:40:18.985Z,1.90
2018-06-12T07:45:22.920Z,1.70
2018-06-12T07:50:26.576Z,1.63
2018-06-12T07:55:30.230Z,1.90
2018-06-12T08:00:33.905Z,1.87
2018-06-12T08:05:37.577Z,1.70
2018-06-12T08:10:41.707Z,2.00
2018-06-12T08:15:45.360Z,2.00
2018-06-12T08:20:49.031Z,1.40
2018-06-12T08:25:52.848Z,1.80
2018-06-12T08:30:56.508Z,1.60
2018-06-12T08:36:01.685Z,1.50
2018-06-12T08:41:05.388Z,2.10
2018-06-12T08:46:09.540Z,2.23
2018-06-12T08:51:13.159Z,1.70
2018-06-12T08:56:17.224Z,1.60
2018-06-12T09:01:20.895Z,1.83
2018-06-12T09:06:25.328Z,1.57
2018-06-12T09:11:28.988Z,1.33
2018-06-12T09:16:32.679Z,1.70
2018-06-12T09:21:36.311Z,1.43
2018-06-12T09:26:40.008Z,1.40
2018-06-12T09:31:44.549Z,1.90
2018-06-12T09:36:48.444Z,1.67
2018-06-12T09:41:52.820Z,1.90
2018-06-12T09:46:56.526Z,1.67
2018-06-12T09:52:00.293Z,1.40
2018-06-12T09:57:04.334Z,1.40
2018-06-12T10:02:08.022Z,1.60
2018-06-12T10:07:11.675Z,1.30
2018-06-12T10:12:15.377Z,1.40
2018-06-12T10:17:19.035Z,1.90
2018-06-12T10:22:22.666Z,1.70
2018-06-12T10:27:26.329Z,2.17
2018-06-12T10:32:29.983Z,1.93
2018-06-12T10:37:33.704Z,2.43
2018-06-12T10:42:37.343Z,2.83
2018-06-12T10:47:42.719Z,2.33
2018-06-12T10:52:46.378Z,2.47
2018-06-12T10:57:50.744Z,2.30
2018-06-12T11:02:54.389Z,2.17
2018-06-12T11:07:58.399Z,2.10
2018-06-12T11:13:02.307Z,2.20
2018-06-12T11:18:06.486Z,1.10
2018-06-12T11:23:10.234Z,1.20
2018-06-12T11:28:13.962Z,1.20
2018-06-12T11:33:17.658Z,1.47
2018-06-12T11:38:21.649Z,1.30
2018-06-12T11:43:25.588Z,1.47
2018-06-12T11:48:29.595Z,1.63
2018-06-12T11:53:33.264Z,1.53
2018-06-12T11:58:37.206Z,1.50
2018-06-12T12:03:40.964Z,1.50
2018-06-12T12:08:45.487Z,1.53
2018-06-12T12:13:48.796Z,2.03
2018-06-12T12:19:15.801Z,1.47
2018-06-12T12:24:19.478Z,1.50
2018-06-12T12:29:23.140Z,1.50
2018-06-12T12:34:27.789Z,1.80
2018-06-12T12:39:31.511Z,1.63
2018-06-12T12:44:35.172Z,2.20
2018-06-12T12:49:39.685Z,1.97
2018-06-12T12:54:44.404Z,1.50
2018-06-12T12:59:48.767Z,2.00
2018-06-12T13:04:52.453Z,1.80
2018-06-12T13:09:56.174Z,2.00
2018-06-12T13:14:59.823Z,1.60
2018-06-12T13:20:03.568Z,1.60
2018-06-12T13:25:11.090Z,1.70
2018-06-12T13:30:14.772Z,1.53
2018-06-12T13:35:18.522Z,1.57
2018-06-12T13:40:22.988Z,1.53
2018-06-12T13:45:27.146Z,1.60
2018-06-12T13:50:30.829Z,1.60
2018-06-12T13:55:34.497Z,1.60
2018-06-12T14:00:38.276Z,1.93
2018-06-12T14:05:41.975Z,1.90
2018-06-12T14:10:46.328Z,1.93
2018-06-12T14:15:50.037Z,1.87
2018-06-12T14:20:53.681Z,2.00
2018-06-12T14:25:57.372Z,1.90
2018-06-12T14:31:01.721Z,2.00
2018-06-12T14:36:05.531Z,1.70
2018-06-12T14:41:09.222Z,1.50
2018-06-12T14:46:12.872Z,1.60
2018-06-12T14:51:17.248Z,1.50
2018-06-12T14:56:21.396Z,1.57
2018-06-12T15:01:26.641Z,1.57
2018-06-12T15:06:30.313Z,1.63
2018-06-12T15:11:33.973Z,1.80
2018-06-12T15:16:37.637Z,1.57
2018-06-12T15:21:42.181Z,1.50
2018-06-12T15:26:46.075Z,1.87
2018-06-12T15:37:00.449Z,1.70
2018-06-12T15:42:04.517Z,1.50
2018-06-12T15:47:08.885Z,1.30
2018-06-12T15:52:12.564Z,1.20
2018-06-12T15:57:16.673Z,1.20
2018-06-12T16:02:20.692Z,1.03
2018-06-12T16:07:24.378Z,1.60
2018-06-12T16:12:28.067Z,1.40
2018-06-12T16:17:31.731Z,2.23
2018-06-12T16:22:36.334Z,1.50
2018-06-12T16:27:40.109Z,1.70
2018-06-12T16:32:43.765Z,1.57
2018-06-12T16:37:47.559Z,1.33
2018-06-12T16:42:51.250Z,1.70
2018-06-12T16:47:55.411Z,1.80
2018-06-12T16:52:59.358Z,2.43
2018-06-12T16:58:02.687Z,1.60
2018-06-12T17:03:06.725Z,1.30
2018-06-12T17:08:10.390Z,1.50
2018-06-12T17:13:17.094Z,2.17
2018-06-12T17:18:21.055Z,1.50
2018-06-12T17:23:24.355Z,1.90
2018-06-12T17:28:28.052Z,2.70
2018-06-12T17:33:31.720Z,1.33
2018-06-12T17:38:35.788Z,1.47
2018-06-12T17:43:39.749Z,1.43
2018-06-12T17:48:43.364Z,1.63
2018-06-12T17:53:48.180Z,1.60
2018-06-12T17:58:52.790Z,2.00
2018-06-12T18:03:56.446Z,2.00
2018-06-12T18:09:01.489Z,7.60
2018-06-12T18:14:10.085Z,3.00
2018-06-12T18:19:13.867Z,2.20
2018-06-12T18:24:17.511Z,1.97
2018-06-12T18:29:22.132Z,1.40
2018-06-12T18:34:25.994Z,2.40
2018-06-12T18:39:29.679Z,2.00
2018-06-12T18:44:33.693Z,2.00
2018-06-12T18:49:37.730Z,1.90
2018-06-12T18:54:42.405Z,2.00
2018-06-12T18:59:46.186Z,2.23
2018-06-12T19:04:50.225Z,1.73
2018-06-12T19:09:53.933Z,2.07
2018-06-12T19:14:57.659Z,2.30
2018-06-12T19:20:01.408Z,2.30
2018-06-12T19:25:05.071Z,2.13
2018-06-12T19:30:08.684Z,2.30
2018-06-12T19:35:13.227Z,2.63
2018-06-12T19:40:17.856Z,2.30
2018-06-12T19:45:22.147Z,2.10
2018-06-12T19:50:25.779Z,2.20
2018-06-12T19:55:29.464Z,2.10
2018-06-12T20:00:33.477Z,2.80
2018-06-12T20:05:38.315Z,2.30
2018-06-12T20:10:42.278Z,2.43
2018-06-12T20:15:45.972Z,2.00
2018-06-12T20:25:59.946Z,2.10
2018-06-12T20:31:03.591Z,2.17
2018-06-12T20:36:08.045Z,1.83
2018-06-12T20:41:11.868Z,2.20
2018-06-12T20:46:15.952Z,2.20
2018-06-12T20:51:21.998Z,2.17
2018-06-12T20:56:26.679Z,2.10
2018-06-12T21:01:30.413Z,2.40
2018-06-12T21:06:36.654Z,1.93
2018-06-12T21:11:40.417Z,2.03
2018-06-12T21:16:46.027Z,1.60
2018-06-12T21:21:49.768Z,1.90
2018-06-12T21:26:53.654Z,1.97
2018-06-12T21:32:00.190Z,1.80
2018-06-12T21:37:05.780Z,2.10
2018-06-12T21:42:09.795Z,1.90
2018-06-12T21:47:13.776Z,1.80
2018-06-12T21:52:17.391Z,1.77
2018-06-12T21:57:21.807Z,1.60
2018-06-12T22:02:25.470Z,1.70
2018-06-12T22:07:29.091Z,1.70
2018-06-12T22:12:32.924Z,1.70
2018-06-12T22:17:46.462Z,2.00
2018-06-12T22:22:50.221Z,2.17
2018-06-12T22:27:53.849Z,2.30
2018-06-12T22:32:57.583Z,2.33
2018-06-12T22:38:01.733Z,2.03
2018-06-12T22:43:05.944Z,1.77
2018-06-12T22:48:09.579Z,1.50
2018-06-12T22:53:13.508Z,1.50
2018-06-12T22:58:17.167Z,1.30
2018-06-12T23:03:21.198Z,1.20
2018-06-12T23:08:24.931Z,1.53
2018-06-12T23:13:28.594Z,1.40
2018-06-12T23:18:32.236Z,1.23
2018-06-12T23:23:35.865Z,1.20
2018-06-12T23:28:39.691Z,1.40
2018-06-12T23:33:43.955Z,1.37
2018-06-12T23:38:47.591Z,1.63
2018-06-12T23:43:51.231Z,1.30
2018-06-12T23:48:54.884Z,1.63
2018-06-12T23:53:58.828Z,1.43
2018-06-12T23:59:02.643Z,2.00
